createdAt,value
2018-12-19T00:00:51.272Z,6.69
2018-12-19T00:03:18.709Z,6.94
2018-12-19T00:05:46.121Z,6.60
2018-12-19T00:08:13.571Z,6.79
2018-12-19T00:10:41.019Z,6.78
2018-12-19T00:13:08.441Z,6.87
2018-12-19T00:15:35.899Z,6.89
2018-12-19T00:18:03.315Z,6.86
2018-12-19T00:20:30.760Z,6.48
2018-12-19T00:22:58.544Z,6.84
2018-12-19T00:25:25.970Z,6.80
2018-12-19T00:27:53.430Z,6.75
2018-12-19T00:30:20.871Z,6.71
2018-12-19T00:32:48.519Z,6.78
2018-12-19T00:35:16.001Z,6.72
2018-12-19T00:37:43.454Z,6.80
2018-12-19T00:40:10.941Z,6.93
2018-12-19T00:42:38.453Z,6.68
2018-12-19T00:45:05.919Z,6.80
2018-12-19T00:47:33.355Z,6.93
2018-12-19T00:50:00.944Z,6.54
2018-12-19T00:52:30.609Z,6.64
2018-12-19T00:54:58.021Z,6.85
2018-12-19T00:57:25.431Z,6.87
2018-12-19T00:59:52.888Z,6.71
2018-12-19T01:02:20.915Z,6.63
2018-12-19T01:04:48.421Z,6.82
2018-12-19T01:07:15.810Z,6.83
2018-12-19T01:09:43.242Z,6.60
2018-12-19T01:12:10.658Z,6.83
2018-12-19T01:14:38.100Z,6.68
2018-12-19T01:17:05.538Z,6.70
2018-12-19T01:19:34.598Z,6.84
2018-12-19T01:22:02.092Z,6.77
2018-12-19T01:24:29.547Z,6.68
2018-12-19T01:26:56.994Z,6.83
2018-12-19T01:29:24.434Z,6.72
2018-12-19T01:31:51.873Z,6.51
2018-12-19T01:34:19.282Z,6.53
2018-12-19T01:36:46.722Z,6.73
2018-12-19T01:39:14.132Z,6.70
2018-12-19T01:41:43.356Z,6.68
2018-12-19T01:44:10.963Z,6.86
2018-12-19T01:46:38.397Z,6.50
2018-12-19T01:49:05.823Z,6.57
2018-12-19T01:51:33.280Z,6.48
2018-12-19T01:54:00.715Z,6.66
2018-12-19T01:56:28.163Z,6.69
2018-12-19T01:58:55.595Z,6.82
2018-12-19T02:01:23.045Z,6.76
2018-12-19T02:03:50.469Z,6.75
2018-12-19T02:06:17.897Z,6.72
2018-12-19T02:08:45.344Z,6.86
2018-12-19T02:11:12.777Z,6.71
2018-12-19T02:13:40.229Z,6.80
2018-12-19T02:16:08.528Z,6.69
2018-12-19T02:18:36.026Z,6.83
2018-12-19T02:21:03.430Z,6.81
2018-12-19T02:23:30.870Z,6.69
2018-12-19T02:25:58.279Z,6.68
2018-12-19T02:28:25.719Z,6.80
2018-12-19T02:30:53.160Z,6.91
2018-12-19T02:33:20.648Z,6.64
2018-12-19T02:35:48.094Z,6.93
2018-12-19T02:38:15.558Z,6.71
2018-12-19T02:40:42.988Z,6.66
2018-12-19T02:43:10.433Z,6.67
2018-12-19T02:45:37.867Z,6.82
2018-12-19T02:48:05.295Z,6.68
2018-12-19T02:50:32.766Z,6.66
2018-12-19T02:53:00.199Z,6.60
2018-12-19T02:55:27.645Z,6.83
2018-12-19T02:57:55.098Z,6.53
2018-12-19T03:00:22.553Z,6.70
2018-12-19T03:02:49.994Z,6.66
2018-12-19T03:05:17.459Z,6.81
2018-12-19T03:07:44.883Z,6.86
2018-12-19T03:10:12.331Z,6.86
2018-12-19T03:12:39.775Z,6.91
2018-12-19T03:15:08.113Z,6.94
2018-12-19T03:17:35.584Z,6.50
2018-12-19T03:20:02.988Z,6.88
2018-12-19T03:22:30.422Z,6.68
2018-12-19T03:24:57.841Z,6.95
2018-12-19T03:27:25.267Z,7.11
2018-12-19T03:29:52.676Z,6.54
2018-12-19T03:32:20.108Z,7.04
2018-12-19T03:34:47.543Z,6.96
2018-12-19T03:37:14.988Z,7.01
2018-12-19T03:39:42.417Z,7.06
2018-12-19T03:42:09.928Z,6.91
2018-12-19T03:44:37.351Z,6.98
2018-12-19T03:47:04.785Z,6.88
2018-12-19T03:49:32.266Z,7.01
2018-12-19T03:51:59.706Z,7.05
2018-12-19T03:54:27.119Z,7.02
2018-12-19T03:56:54.579Z,6.96
2018-12-19T03:59:21.993Z,6.67
2018-12-19T04:01:50.354Z,6.95
2018-12-19T04:04:17.857Z,7.01
2018-12-19T04:06:45.284Z,7.03
2018-12-19T04:09:12.719Z,7.06
2018-12-19T04:11:40.208Z,6.91
2018-12-19T04:14:07.620Z,6.79
2018-12-19T04:16:35.027Z,6.81
2018-12-19T04:19:02.477Z,7.00
2018-12-19T04:21:29.895Z,6.94
2018-12-19T04:23:58.312Z,6.98
2018-12-19T04:26:25.755Z,6.98
2018-12-19T04:28:53.203Z,7.02
2018-12-19T04:31:20.615Z,7.17
2018-12-19T04:33:48.058Z,7.14
2018-12-19T04:36:15.492Z,6.81
2018-12-19T04:38:42.928Z,6.89
2018-12-19T04:41:10.361Z,6.79
2018-12-19T04:43:37.808Z,6.91
2018-12-19T04:46:05.211Z,6.98
2018-12-19T04:48:32.676Z,6.67
2018-12-19T04:51:00.091Z,6.58
2018-12-19T04:53:27.535Z,6.53
2018-12-19T04:55:54.957Z,6.51
2018-12-19T04:58:22.385Z,6.60
2018-12-19T05:00:52.055Z,6.39
2018-12-19T05:03:19.593Z,6.67
2018-12-19T05:05:47.031Z,6.47
2018-12-19T05:08:14.490Z,6.47
2018-12-19T05:10:41.944Z,6.31
2018-12-19T05:13:09.376Z,6.31
2018-12-19T05:15:36.897Z,6.33
2018-12-19T05:18:04.338Z,6.16
2018-12-19T05:20:31.777Z,6.18
2018-12-19T05:23:00.746Z,6.35
2018-12-19T05:25:28.247Z,6.38
2018-12-19T05:27:55.672Z,6.50
2018-12-19T05:30:23.104Z,6.29
2018-12-19T05:32:50.525Z,6.20
2018-12-19T05:35:17.964Z,6.30
2018-12-19T05:37:45.372Z,6.48
2018-12-19T05:40:18.666Z,6.56
2018-12-19T05:42:40.288Z,6.43
2018-12-19T05:45:07.733Z,6.26
2018-12-19T05:47:35.158Z,6.53
2018-12-19T05:50:02.639Z,6.28
2018-12-19T05:52:30.047Z,6.40
2018-12-19T05:54:57.496Z,6.40
2018-12-19T05:57:24.982Z,6.52
2018-12-19T05:59:52.380Z,6.40
2018-12-19T06:02:19.822Z,6.46
2018-12-19T06:04:47.265Z,6.52
2018-12-19T06:07:14.693Z,6.49
2018-12-19T06:09:42.114Z,6.59
2018-12-19T06:12:09.551Z,6.58
2018-12-19T06:14:37.726Z,6.50
2018-12-19T06:17:04.755Z,6.24
2018-12-19T06:19:32.194Z,6.42
2018-12-19T06:21:59.648Z,6.62
2018-12-19T06:24:27.097Z,6.63
2018-12-19T06:26:54.522Z,6.55
2018-12-19T06:29:21.958Z,6.55
2018-12-19T06:31:49.377Z,6.47
2018-12-19T06:34:17.410Z,6.64
2018-12-19T06:36:44.857Z,6.59
2018-12-19T06:39:12.293Z,6.61
2018-12-19T06:41:39.737Z,6.39
2018-12-19T06:44:07.151Z,6.56
2018-12-19T06:46:34.585Z,6.53
2018-12-19T06:49:02.017Z,6.57
2018-12-19T06:51:29.448Z,6.45
2018-12-19T06:53:56.868Z,6.75
2018-12-19T06:56:24.315Z,6.78
2018-12-19T06:58:51.720Z,6.60
2018-12-19T07:01:19.187Z,6.74
2018-12-19T07:03:46.629Z,6.90
2018-12-19T07:06:14.075Z,6.83
2018-12-19T07:08:41.602Z,6.66
2018-12-19T07:11:08.945Z,6.52
2018-12-19T07:13:36.390Z,6.74
2018-12-19T07:16:03.829Z,6.78
2018-12-19T07:18:31.250Z,6.75
2018-12-19T07:20:58.662Z,6.82
2018-12-19T07:23:26.109Z,6.75
2018-12-19T07:25:53.557Z,6.85
2018-12-19T07:28:20.970Z,6.69
2018-12-19T07:30:48.400Z,6.65
2018-12-19T07:33:15.834Z,6.96
2018-12-19T07:35:43.276Z,6.82
2018-12-19T07:38:10.740Z,6.72
2018-12-19T07:40:45.368Z,7.00
2018-12-19T07:43:06.675Z,6.94
2018-12-19T07:45:34.121Z,6.94
2018-12-19T07:48:01.547Z,6.88
2018-12-19T07:50:29.001Z,6.99
2018-12-19T07:52:56.434Z,6.81
2018-12-19T07:55:23.867Z,6.90
2018-12-19T07:57:51.289Z,6.92
2018-12-19T08:00:18.737Z,6.86
2018-12-19T08:02:46.174Z,7.17
2018-12-19T08:05:13.595Z,7.03
2018-12-19T08:07:41.031Z,7.18
2018-12-19T08:10:08.457Z,7.25
2018-12-19T08:12:36.238Z,7.34
2018-12-19T08:15:03.349Z,7.38
2018-12-19T08:17:30.791Z,7.35
2018-12-19T08:19:58.209Z,7.44
2018-12-19T08:22:25.664Z,7.42
2018-12-19T08:24:53.085Z,7.52
2018-12-19T08:27:20.518Z,7.06
2018-12-19T08:29:47.949Z,7.03
2018-12-19T08:32:15.362Z,7.17
2018-12-19T08:34:42.838Z,7.43
2018-12-19T08:37:11.765Z,7.11
2018-12-19T08:39:39.259Z,7.19
2018-12-19T08:42:06.687Z,7.24
2018-12-19T08:44:34.108Z,7.37
2018-12-19T08:47:01.534Z,7.46
2018-12-19T08:49:28.966Z,7.57
2018-12-19T08:51:56.376Z,7.47
2018-12-19T08:54:23.824Z,7.53
2018-12-19T08:56:51.228Z,7.72
2018-12-19T08:59:18.674Z,7.45
2018-12-19T09:01:46.128Z,7.57
2018-12-19T09:04:13.553Z,7.50
2018-12-19T09:06:40.968Z,7.44
2018-12-19T09:09:08.414Z,7.69
2018-12-19T09:11:35.861Z,7.49
2018-12-19T09:14:03.277Z,7.68
2018-12-19T09:16:30.774Z,7.62
2018-12-19T09:18:58.212Z,7.56
2018-12-19T09:21:25.641Z,7.59
2018-12-19T09:23:53.077Z,7.52
2018-12-19T09:26:20.548Z,7.56
2018-12-19T09:28:47.987Z,7.65
2018-12-19T09:31:15.509Z,7.75
2018-12-19T09:33:42.937Z,7.68
2018-12-19T09:36:10.367Z,7.83
2018-12-19T09:38:37.804Z,7.93
2018-12-19T09:41:05.247Z,7.91
2018-12-19T09:43:32.696Z,8.09
2018-12-19T09:46:00.140Z,7.93
2018-12-19T09:48:27.559Z,8.08
2018-12-19T09:50:54.968Z,8.11
2018-12-19T09:53:22.417Z,7.90
2018-12-19T09:55:49.835Z,7.77
2018-12-19T09:58:17.300Z,7.96
2018-12-19T10:00:44.723Z,7.92
2018-12-19T10:03:12.140Z,8.06
2018-12-19T10:05:39.566Z,7.96
2018-12-19T10:08:06.991Z,7.93
2018-12-19T10:10:34.429Z,8.08
2018-12-19T10:13:01.838Z,8.33
2018-12-19T10:15:29.276Z,8.08
2018-12-19T10:17:56.729Z,8.34
2018-12-19T10:20:24.162Z,8.41
2018-12-19T10:22:51.577Z,8.50
2018-12-19T10:25:19.009Z,8.38
2018-12-19T10:27:46.552Z,8.48
2018-12-19T10:30:13.957Z,8.40
2018-12-19T10:32:41.465Z,8.59
2018-12-19T10:35:08.888Z,8.50
2018-12-19T10:37:36.307Z,8.47
2018-12-19T10:40:03.729Z,8.73
2018-12-19T10:42:31.165Z,8.81
2018-12-19T10:44:58.580Z,8.83
2018-12-19T10:47:25.996Z,8.92
2018-12-19T10:49:53.432Z,8.80
2018-12-19T10:52:20.842Z,8.91
2018-12-19T10:54:48.279Z,8.86
2018-12-19T10:57:15.696Z,8.93
2018-12-19T10:59:43.171Z,9.01
2018-12-19T11:02:11.457Z,8.95
2018-12-19T11:04:39.012Z,8.98
2018-12-19T11:07:06.449Z,9.07
2018-12-19T11:09:33.867Z,9.12
2018-12-19T11:12:01.303Z,9.10
2018-12-19T11:14:28.735Z,8.82
2018-12-19T11:16:56.621Z,9.03
2018-12-19T11:19:24.453Z,9.08
2018-12-19T11:21:52.419Z,9.02
2018-12-19T11:24:19.894Z,8.93
2018-12-19T11:26:47.324Z,8.91
2018-12-19T11:29:14.777Z,8.85
2018-12-19T11:31:42.193Z,8.78
2018-12-19T11:34:09.618Z,8.94
2018-12-19T11:36:37.065Z,8.91
2018-12-19T11:39:04.851Z,8.74
2018-12-19T11:41:38.797Z,9.06
2018-12-19T11:43:59.874Z,8.96
2018-12-19T11:46:27.321Z,8.89
2018-12-19T11:48:54.773Z,9.12
2018-12-19T11:51:22.202Z,9.18
2018-12-19T11:53:49.651Z,9.17
2018-12-19T11:56:17.094Z,9.34
2018-12-19T11:58:44.563Z,9.29
2018-12-19T12:01:12.528Z,9.12
2018-12-19T12:03:39.990Z,9.21
2018-12-19T12:06:07.440Z,9.35
2018-12-19T12:08:34.854Z,9.18
2018-12-19T12:11:02.340Z,9.36
2018-12-19T12:13:29.761Z,9.42
2018-12-19T12:15:57.199Z,9.39
2018-12-19T12:18:24.623Z,9.22
2018-12-19T12:20:52.098Z,9.44
2018-12-19T12:23:19.535Z,9.44
2018-12-19T12:25:46.993Z,9.34
2018-12-19T12:28:14.459Z,9.45
2018-12-19T12:30:41.875Z,9.59
2018-12-19T12:33:09.328Z,9.52
2018-12-19T12:35:36.748Z,9.58
2018-12-19T12:38:04.211Z,9.57
2018-12-19T12:40:31.618Z,9.39
2018-12-19T12:42:59.048Z,9.40
2018-12-19T12:45:26.470Z,9.62
2018-12-19T12:47:53.906Z,9.63
2018-12-19T12:50:21.341Z,9.61
2018-12-19T12:52:48.767Z,9.55
2018-12-19T12:55:16.203Z,9.69
2018-12-19T12:57:43.621Z,9.65
2018-12-19T13:00:11.040Z,9.62
2018-12-19T13:02:38.472Z,9.60
2018-12-19T13:05:05.914Z,9.69
2018-12-19T13:07:33.350Z,9.50
2018-12-19T13:10:00.769Z,9.66
2018-12-19T13:12:28.216Z,9.68
2018-12-19T13:14:55.653Z,9.64
2018-12-19T13:17:23.114Z,9.74
2018-12-19T13:19:50.535Z,9.66
2018-12-19T13:22:17.972Z,9.82
2018-12-19T13:24:45.395Z,9.59
2018-12-19T13:27:12.818Z,9.47
2018-12-19T13:29:40.256Z,9.48
2018-12-19T13:32:07.691Z,9.65
2018-12-19T13:34:35.135Z,9.66
2018-12-19T13:37:02.598Z,9.63
2018-12-19T13:39:30.005Z,9.75
2018-12-19T13:41:57.431Z,9.64
2018-12-19T13:44:24.858Z,9.57
2018-12-19T13:46:52.313Z,9.51
2018-12-19T13:49:19.723Z,9.70
2018-12-19T13:51:47.162Z,9.79
2018-12-19T13:54:14.649Z,9.81
2018-12-19T13:56:42.075Z,9.74
2018-12-19T13:59:09.520Z,9.77
2018-12-19T14:01:36.945Z,9.76
2018-12-19T14:04:04.367Z,9.66
2018-12-19T14:06:31.794Z,9.72
2018-12-19T14:08:59.245Z,9.56
2018-12-19T14:11:26.651Z,9.61
2018-12-19T14:13:54.083Z,9.80
2018-12-19T14:16:21.531Z,9.73
2018-12-19T14:18:48.962Z,9.88
2018-12-19T14:21:16.410Z,9.85
2018-12-19T14:23:43.845Z,9.83
2018-12-19T14:26:11.302Z,9.82
2018-12-19T14:28:38.717Z,9.74
2018-12-19T14:31:06.130Z,9.87
2018-12-19T14:33:33.562Z,10.03
2018-12-19T14:36:00.997Z,10.06
2018-12-19T14:38:28.453Z,9.94
2018-12-19T14:40:55.890Z,10.01
2018-12-19T14:43:23.331Z,10.03
2018-12-19T14:45:50.770Z,9.98
2018-12-19T14:48:18.184Z,10.05
2018-12-19T14:50:45.637Z,10.07
2018-12-19T14:53:13.080Z,10.04
2018-12-19T14:55:40.504Z,10.04
2018-12-19T14:58:07.949Z,9.99
2018-12-19T15:00:35.382Z,9.89
2018-12-19T15:03:02.920Z,10.07
2018-12-19T15:05:30.416Z,10.07
2018-12-19T15:07:57.894Z,9.98
2018-12-19T15:10:25.365Z,10.05
2018-12-19T15:12:53.625Z,10.07
2018-12-19T15:15:21.194Z,10.08
2018-12-19T15:17:48.641Z,10.01
2018-12-19T15:20:16.097Z,10.06
2018-12-19T15:22:43.544Z,10.07
2018-12-19T15:25:10.957Z,9.99
2018-12-19T15:27:38.384Z,9.87
2018-12-19T15:30:05.867Z,9.98
2018-12-19T15:32:33.289Z,10.03
2018-12-19T15:35:01.902Z,10.06
2018-12-19T15:37:29.350Z,9.97
2018-12-19T15:39:56.876Z,10.08
2018-12-19T15:42:24.336Z,9.89
2018-12-19T15:44:51.765Z,9.95
2018-12-19T15:47:19.204Z,9.88
2018-12-19T15:49:46.617Z,9.96
2018-12-19T15:52:14.059Z,9.95
2018-12-19T15:54:41.467Z,9.90
2018-12-19T15:57:08.903Z,9.88
2018-12-19T15:59:36.331Z,9.75
2018-12-19T16:02:03.817Z,9.83
2018-12-19T16:04:31.235Z,9.97
2018-12-19T16:06:58.662Z,9.72
2018-12-19T16:09:26.098Z,9.61
2018-12-19T16:11:53.525Z,9.88
2018-12-19T16:14:20.954Z,9.87
2018-12-19T16:16:48.381Z,9.56
2018-12-19T16:19:15.818Z,9.79
2018-12-19T16:21:43.242Z,9.77
2018-12-19T16:24:11.114Z,9.71
2018-12-19T16:26:38.518Z,9.41
2018-12-19T16:29:05.950Z,9.61
2018-12-19T16:31:33.384Z,9.70
2018-12-19T16:34:00.819Z,9.62
2018-12-19T16:36:28.254Z,9.60
2018-12-19T16:38:55.681Z,9.52
2018-12-19T16:41:23.120Z,9.36
2018-12-19T16:43:50.546Z,9.54
2018-12-19T16:46:17.981Z,9.54
2018-12-19T16:48:45.410Z,9.57
2018-12-19T16:51:12.871Z,9.47
2018-12-19T16:53:40.284Z,9.58
2018-12-19T16:56:07.721Z,9.55
2018-12-19T16:58:35.155Z,9.10
2018-12-19T17:01:02.596Z,9.35
2018-12-19T17:03:30.033Z,9.36
2018-12-19T17:05:57.475Z,9.39
2018-12-19T17:08:24.887Z,9.15
2018-12-19T17:10:52.323Z,9.19
2018-12-19T17:13:19.726Z,8.93
2018-12-19T17:15:47.140Z,9.29
2018-12-19T17:18:14.577Z,9.08
2018-12-19T17:20:42.004Z,9.25
2018-12-19T17:23:09.470Z,9.18
2018-12-19T17:25:36.909Z,9.19
2018-12-19T17:28:04.451Z,9.23
2018-12-19T17:30:31.878Z,9.19
2018-12-19T17:32:59.304Z,9.09
2018-12-19T17:35:26.745Z,9.20
2018-12-19T17:37:54.469Z,9.22
2018-12-19T17:40:21.962Z,9.16
2018-12-19T17:42:49.386Z,9.22
2018-12-19T17:45:16.840Z,9.40
2018-12-19T17:47:44.281Z,9.40
2018-12-19T17:50:11.733Z,9.34
2018-12-19T17:52:39.143Z,8.89
2018-12-19T17:55:06.601Z,9.23
2018-12-19T17:57:34.030Z,9.28
2018-12-19T18:00:01.473Z,9.31
2018-12-19T18:02:28.886Z,9.30
2018-12-19T18:04:56.332Z,8.88
2018-12-19T18:07:23.774Z,9.25
2018-12-19T18:09:51.192Z,9.18
2018-12-19T18:12:19.321Z,9.25
2018-12-19T18:14:46.748Z,9.33
2018-12-19T18:17:14.197Z,9.45
2018-12-19T18:19:41.603Z,9.20
2018-12-19T18:22:09.040Z,9.37
2018-12-19T18:24:36.435Z,9.29
2018-12-19T18:27:03.870Z,9.35
2018-12-19T18:29:31.386Z,9.26
2018-12-19T18:31:58.918Z,9.26
2018-12-19T18:34:26.347Z,9.46
2018-12-19T18:36:53.780Z,9.36
2018-12-19T18:39:26.177Z,9.51
2018-12-19T18:41:48.665Z,9.55
2018-12-19T18:44:16.119Z,9.58
2018-12-19T18:46:43.609Z,9.55
2018-12-19T18:49:11.123Z,9.45
2018-12-19T18:51:38.541Z,9.46
2018-12-19T18:54:05.995Z,9.38
2018-12-19T18:56:33.401Z,9.40
2018-12-19T18:59:02.131Z,9.48
2018-12-19T19:01:29.651Z,9.41
2018-12-19T19:03:57.115Z,9.18
2018-12-19T19:06:24.516Z,9.44
2018-12-19T19:08:52.013Z,9.36
2018-12-19T19:11:19.453Z,8.82
2018-12-19T19:13:46.900Z,9.22
2018-12-19T19:16:14.315Z,9.16
2018-12-19T19:18:41.725Z,9.28
2018-12-19T19:21:09.166Z,9.30
2018-12-19T19:23:36.582Z,9.15
2018-12-19T19:26:05.057Z,9.08
2018-12-19T19:28:32.485Z,9.27
2018-12-19T19:30:59.914Z,9.19
2018-12-19T19:33:27.325Z,9.21
2018-12-19T19:35:54.743Z,9.27
2018-12-19T19:38:22.156Z,9.34
2018-12-19T19:40:49.593Z,9.22
2018-12-19T19:43:17.074Z,9.27
2018-12-19T19:45:44.511Z,9.13
2018-12-19T19:48:11.918Z,9.36
2018-12-19T19:50:39.363Z,9.20
2018-12-19T19:53:06.990Z,9.23
2018-12-19T19:55:34.411Z,9.35
2018-12-19T19:58:01.859Z,9.17
2018-12-19T20:00:29.289Z,9.21
2018-12-19T20:02:56.818Z,9.23
2018-12-19T20:05:24.278Z,8.86
2018-12-19T20:07:51.715Z,9.19
2018-12-19T20:10:19.142Z,9.30
2018-12-19T20:12:46.589Z,9.05
2018-12-19T20:15:14.009Z,9.24
2018-12-19T20:17:41.439Z,9.33
2018-12-19T20:20:08.877Z,9.28
2018-12-19T20:22:36.344Z,9.32
2018-12-19T20:25:04.747Z,8.78
2018-12-19T20:27:32.254Z,9.19
2018-12-19T20:29:59.681Z,9.06
2018-12-19T20:32:27.146Z,9.02
2018-12-19T20:34:55.238Z,9.14
2018-12-19T20:37:22.731Z,9.11
2018-12-19T20:39:50.153Z,9.28
2018-12-19T20:42:17.597Z,8.92
2018-12-19T20:44:45.012Z,9.16
2018-12-19T20:47:13.484Z,9.26
2018-12-19T20:49:41.055Z,9.25
2018-12-19T20:52:08.465Z,9.30
2018-12-19T20:54:35.914Z,9.25
2018-12-19T20:57:03.345Z,9.15
2018-12-19T20:59:30.798Z,8.94
2018-12-19T21:01:58.232Z,9.06
2018-12-19T21:04:25.756Z,9.04
2018-12-19T21:06:53.386Z,9.07
2018-12-19T21:09:21.261Z,9.23
2018-12-19T21:11:49.750Z,9.06
2018-12-19T21:14:17.275Z,9.16
2018-12-19T21:16:50.330Z,9.10
2018-12-19T21:19:17.828Z,9.12
2018-12-19T21:21:46.047Z,8.96
2018-12-19T21:24:14.375Z,9.16
2018-12-19T21:26:42.709Z,8.95
2018-12-19T21:29:10.669Z,8.95
2018-12-19T21:31:38.870Z,8.82
2018-12-19T21:34:07.187Z,8.82
2018-12-19T21:36:35.367Z,8.91
2018-12-19T21:39:03.930Z,9.10
2018-12-19T21:41:32.156Z,9.21
2018-12-19T21:44:00.460Z,8.82
2018-12-19T21:46:29.385Z,9.17
2018-12-19T21:48:57.433Z,8.98
2018-12-19T21:51:25.278Z,8.85
2018-12-19T21:53:53.249Z,8.76
2018-12-19T21:56:21.884Z,8.81
2018-12-19T21:58:49.839Z,9.03
2018-12-19T22:01:17.922Z,8.86
2018-12-19T22:03:46.019Z,8.98
2018-12-19T22:06:14.403Z,9.19
2018-12-19T22:08:42.571Z,9.06
2018-12-19T22:11:11.734Z,9.12
2018-12-19T22:13:39.863Z,9.07
2018-12-19T22:16:08.062Z,9.02
2018-12-19T22:18:41.745Z,8.86
2018-12-19T22:21:09.953Z,8.97
2018-12-19T22:23:38.763Z,8.74
2018-12-19T22:26:07.073Z,9.02
2018-12-19T22:28:35.819Z,8.89
2018-12-19T22:31:04.208Z,8.86
2018-12-19T22:33:32.225Z,8.64
2018-12-19T22:36:00.670Z,8.64
2018-12-19T22:38:29.037Z,8.80
2018-12-19T22:40:57.342Z,8.71
2018-12-19T22:43:25.618Z,8.57
2018-12-19T22:45:53.779Z,8.58
2018-12-19T22:48:21.392Z,8.93
2018-12-19T22:50:49.605Z,8.99
2018-12-19T22:53:18.020Z,9.08
2018-12-19T22:55:46.241Z,8.92
2018-12-19T22:58:13.814Z,8.96
2018-12-19T23:00:56.368Z,8.98
2018-12-19T23:03:25.363Z,8.85
2018-12-19T23:05:53.666Z,8.73
2018-12-19T23:08:21.363Z,8.64
2018-12-19T23:10:49.760Z,8.82
2018-12-19T23:13:18.459Z,8.88
2018-12-19T23:15:46.195Z,8.59
2018-12-19T23:18:19.226Z,8.54
2018-12-19T23:20:46.602Z,8.80
2018-12-19T23:23:14.463Z,8.94
2018-12-19T23:25:42.987Z,8.65
2018-12-19T23:28:10.602Z,8.80
2018-12-19T23:30:40.545Z,8.66
2018-12-19T23:33:08.878Z,8.78
2018-12-19T23:35:37.017Z,8.82
2018-12-19T23:38:05.205Z,8.74
2018-12-19T23:40:33.735Z,8.84
2018-12-19T23:43:02.058Z,8.78
2018-12-19T23:45:29.732Z,8.91
2018-12-19T23:47:57.512Z,8.57
2018-12-19T23:50:25.017Z,8.86
2018-12-19T23:52:53.343Z,8.67
2018-12-19T23:55:20.956Z,8.68
2018-12-19T23:57:48.451Z,8.80
